Time;durP1;ratioP1;P1;durP2;ratioP2;P2;SDS_P1;SDS_P2;PMS_P1;PMS_P2;Temp;Humidity;BMP_temperature;BMP_pressure;BME280_temperature;BME280_humidity;BME280_pressure;Samples;Min_cycle;Max_cycle;Signal;HPM_P1;HPM_P2
2021/12/20 00:03:38;;;;;;;53.95;32.38;;;;;;;0.23;82.75;97119.66;10362935;28;20507;-58
2021/12/20 00:08:37;;;;;;;54.95;32.53;;;;;;;0.21;82.67;97105.13;10362420;28;20828;-58
2021/12/20 00:13:36;;;;;;;53.60;30.60;;;;;;;0.37;82.94;97120.06;10361214;28;20041;-58
2021/12/20 00:18:35;;;;;;;56.17;33.70;;;;;;;0.42;82.91;97121.06;10362325;28;20769;-58
2021/12/20 00:23:34;;;;;;;52.65;29.73;;;;;;;0.50;83.03;97125.50;10363235;28;20041;-58
2021/12/20 00:28:33;;;;;;;49.97;30.20;;;;;;;0.40;82.62;97107.38;10370458;28;21060;-58
2021/12/20 00:33:35;;;;;;;57.60;31.90;;;;;;;0.56;82.23;97128.25;10370472;28;20048;-58
2021/12/20 00:43:53;;;;;;;60.30;36.10;;;;;;;0.31;81.86;97142.88;10371007;28;20127;-58
2021/12/20 00:48:52;;;;;;;57.30;33.72;;;;;;;0.25;82.19;97142.69;10371389;28;20131;-58
2021/12/20 00:53:51;;;;;;;53.53;31.77;;;;;;;0.26;82.82;97137.66;10370628;28;20132;-58
2021/12/20 00:58:50;;;;;;;59.67;36.38;;;;;;;0.37;82.69;97148.16;10371084;28;20469;-58
2021/12/20 01:03:49;;;;;;;62.20;35.40;;;;;;;0.34;82.59;97147.22;10370734;28;20420;-57
2021/12/20 01:08:50;;;;;;;59.85;36.03;;;;;;;0.32;82.56;97143.75;10370547;28;20044;-58
2021/12/20 01:13:50;;;;;;;57.63;34.92;;;;;;;0.24;82.66;97134.19;10370469;28;20120;-58
2021/12/20 01:18:48;;;;;;;63.58;37.83;;;;;;;0.34;83.02;97137.84;10369477;28;20112;-58
2021/12/20 01:23:47;;;;;;;84.72;49.03;;;;;;;0.40;83.05;97140.56;10369510;28;20037;-58
2021/12/20 01:28:46;;;;;;;108.63;61.67;;;;;;;0.38;82.85;97136.25;10370421;28;20041;-58
2021/12/20 01:33:46;;;;;;;98.35;54.97;;;;;;;0.31;82.82;97129.22;10369273;28;20537;-58
2021/12/20 01:38:45;;;;;;;94.35;52.28;;;;;;;0.51;83.08;97151.09;10368716;28;20113;-58
2021/12/20 01:43:44;;;;;;;;;;;;;;;0.63;82.88;97153.13;10370558;28;20113;-58
2021/12/20 01:48:45;;;;;;;93.57;52.05;;;;;;;0.73;82.73;97149.13;10369260;28;20040;-58
2021/12/20 01:53:44;;;;;;;125.65;67.03;;;;;;;0.68;82.91;97152.41;10369861;28;20056;-58
2021/12/20 01:58:43;;;;;;;134.38;70.95;;;;;;;0.73;83.17;97152.56;10373045;28;20100;-58
2021/12/20 02:03:46;;;;;;;94.10;53.97;;;;;;;0.69;82.77;97158.41;10373857;28;20029;-58
2021/12/20 02:08:45;;;;;;;76.07;45.80;;;;;;;0.69;83.13;97140.53;10373417;28;20480;-58
2021/12/20 02:13:44;;;;;;;;;;;;;;;0.80;82.93;97158.69;10374494;28;20791;-58
2021/12/20 02:18:43;;;;;;;110.72;58.35;;;;;;;0.73;82.78;97144.88;10373345;28;20379;-58
2021/12/20 02:23:42;;;;;;;76.07;45.58;;;;;;;0.58;82.81;97152.13;10375435;28;20029;-58
2021/12/20 02:28:45;;;;;;;70.13;41.78;;;;;;;0.43;83.20;97142.38;10375148;28;20582;-58
2021/12/20 02:39:04;;;;;;;50.60;30.87;;;;;;;0.47;82.69;97129.75;10374976;28;20089;-57
2021/12/20 02:44:05;;;;;;;49.70;29.20;;;;;;;0.30;82.94;97150.47;10374941;28;20207;-58
2021/12/20 02:49:10;;;;;;;44.65;25.38;;;;;;;0.20;83.37;97150.22;10374675;28;20073;-58
2021/12/20 02:54:10;;;;;;;42.45;25.70;;;;;;;0.29;83.31;97136.88;10372842;28;20063;-58
2021/12/20 02:59:10;;;;;;;44.35;26.48;;;;;;;0.35;83.36;97106.41;10372523;28;20121;-57
2021/12/20 03:04:10;;;;;;;48.17;26.88;;;;;;;0.36;83.48;97109.81;10372907;28;20531;-58
2021/12/20 03:09:14;;;;;;;48.90;28.83;;;;;;;0.36;83.45;97117.47;10372183;28;20063;-57
2021/12/20 03:14:26;;;;;;;63.63;39.55;;;;;;;0.32;83.56;97113.13;10372170;28;20063;-57
2021/12/20 03:19:25;;;;;;;47.90;27.25;;;;;;;0.18;83.58;97118.69;10373189;28;20061;-58
2021/12/20 03:24:25;;;;;;;51.25;31.38;;;;;;;0.27;83.59;97128.28;10370466;28;20079;-58
2021/12/20 03:29:24;;;;;;;58.30;34.65;;;;;;;0.20;83.58;97111.94;10372819;28;20508;-58
2021/12/20 03:34:23;;;;;;;62.08;34.85;;;;;;;0.35;83.42;97129.38;10371666;28;20586;-57
2021/12/20 03:39:22;;;;;;;64.95;37.30;;;;;;;0.36;83.49;97123.47;10372909;28;20477;-57
2021/12/20 03:44:22;;;;;;;58.13;34.60;;;;;;;0.42;83.55;97115.09;10372818;28;20534;-57
2021/12/20 03:49:21;;;;;;;67.07;38.25;;;;;;;0.36;84.01;97130.22;10372738;28;20065;-57
2021/12/20 03:54:20;;;;;;;71.88;43.05;;;;;;;0.33;84.29;97150.56;10372148;28;20021;-57
2021/12/20 03:59:19;;;;;;;62.28;37.33;;;;;;;0.31;84.59;97131.78;10375248;28;20484;-57
2021/12/20 04:04:18;;;;;;;62.42;38.65;;;;;;;0.39;84.30;97118.44;10381299;28;20403;-58
2021/12/20 04:09:17;;;;;;;61.83;37.85;;;;;;;0.44;84.30;97116.88;10381075;28;20024;-57
2021/12/20 04:14:16;;;;;;;63.13;37.83;;;;;;;0.67;84.23;97116.66;10380764;28;20066;-57
2021/12/20 04:19:15;;;;;;;64.57;39.22;;;;;;;0.27;84.33;97039.84;10380724;28;20040;-58
2021/12/20 04:24:14;;;;;;;53.95;32.20;;;;;;;0.65;84.38;97096.16;10379588;28;20068;-58
2021/12/20 04:29:12;;;;;;;44.65;27.65;;;;;;;0.78;84.52;97107.59;10378954;28;20021;-58
2021/12/20 04:34:11;;;;;;;49.35;30.45;;;;;;;0.84;84.21;97109.44;10379396;28;20396;-57
2021/12/20 04:39:15;;;;;;;36.22;22.55;;;;;;;1.10;84.25;97107.56;10379512;28;20065;-57
2021/12/20 04:44:14;;;;;;;24.70;15.35;;;;;;;1.30;83.73;97101.25;10378242;28;20493;-57
2021/12/20 04:49:13;;;;;;;42.90;26.52;;;;;;;1.28;81.97;97109.72;10379610;28;20391;-57
2021/12/20 04:54:12;;;;;;;48.80;30.98;;;;;;;1.29;82.07;97114.88;10377476;28;20060;-57
2021/12/20 04:59:11;;;;;;;55.45;33.67;;;;;;;1.42;81.78;97118.59;10378655;28;20067;-58
2021/12/20 05:04:10;;;;;;;56.15;34.72;;;;;;;1.36;81.79;97089.44;10374715;28;20025;-57
2021/12/20 05:09:09;;;;;;;64.85;40.17;;;;;;;1.53;81.41;97113.75;10336680;28;20061;-57
2021/12/20 05:14:08;;;;;;;53.25;32.30;;;;;;;1.30;80.92;97111.50;10336821;28;20030;-57
2021/12/20 05:19:07;;;;;;;61.00;35.25;;;;;;;1.49;80.96;97117.91;10339760;28;20040;-57
2021/12/20 05:24:07;;;;;;;52.95;31.98;;;;;;;1.62;80.80;97113.09;10337017;28;20531;-57
2021/12/20 05:29:07;;;;;;;47.10;29.38;;;;;;;1.68;80.50;97120.91;10335468;28;20597;-57
2021/12/20 05:34:06;;;;;;;46.60;29.27;;;;;;;1.71;80.57;97124.38;10351868;28;20515;-57
2021/12/20 05:39:05;;;;;;;48.53;29.75;;;;;;;1.81;79.92;97124.59;10377202;28;20820;-57
2021/12/20 05:44:04;;;;;;;49.28;31.45;;;;;;;1.89;80.34;97123.09;10375030;28;20033;-57
2021/12/20 05:49:03;;;;;;;43.40;28.45;;;;;;;1.92;79.55;97133.41;10370987;28;20543;-57
2021/12/20 05:54:02;;;;;;;39.83;24.77;;;;;;;2.06;78.77;97126.88;10375453;28;20476;-57
2021/12/20 05:59:01;;;;;;;40.20;27.80;;;;;;;2.21;78.54;97125.50;10368053;28;20069;-57
2021/12/20 06:04:00;;;;;;;33.33;21.92;;;;;;;2.30;78.39;97131.69;10374130;28;20075;-58
2021/12/20 06:08:59;;;;;;;25.52;16.67;;;;;;;2.33;77.43;97111.28;10375965;28;20071;-57
2021/12/20 06:13:58;;;;;;;26.83;17.92;;;;;;;2.42;75.25;97117.41;10372527;28;20052;-57
2021/12/20 06:18:57;;;;;;;12.75;8.38;;;;;;;2.53;73.83;97123.59;10371873;28;20075;-57
2021/12/20 06:23:56;;;;;;;9.48;6.15;;;;;;;2.66;70.16;97117.06;10374077;28;20025;-58
2021/12/20 06:28:55;;;;;;;10.15;6.47;;;;;;;2.89;69.71;97118.34;10370028;28;20064;-57
2021/12/20 06:33:54;;;;;;;8.85;5.72;;;;;;;3.04;67.86;97119.47;10369833;28;20025;-58
2021/12/20 06:38:54;;;;;;;7.93;5.07;;;;;;;3.20;67.49;97121.47;10375086;28;20096;-58
2021/12/20 06:43:53;;;;;;;9.05;5.85;;;;;;;3.34;66.26;97129.41;10372158;28;20519;-58
2021/12/20 06:48:52;;;;;;;7.25;4.75;;;;;;;3.06;64.56;97058.84;10372401;28;20025;-58
2021/12/20 06:53:51;;;;;;;7.75;5.57;;;;;;;3.65;65.89;97121.38;10374241;28;20028;-58
2021/12/20 06:58:53;;;;;;;7.88;4.85;;;;;;;3.73;63.76;97128.31;10342147;28;20084;-58
2021/12/20 07:03:52;;;;;;;8.65;5.32;;;;;;;3.80;62.48;97112.19;10370588;28;20109;-58
2021/12/20 07:08:51;;;;;;;9.35;4.80;;;;;;;3.89;62.75;97114.03;10371851;28;20027;-58
2021/12/20 07:13:53;;;;;;;9.68;4.55;;;;;;;3.94;61.73;97123.53;10369120;28;20095;-58
2021/12/20 07:18:52;;;;;;;6.97;4.43;;;;;;;3.96;60.96;97133.81;10322461;28;20062;-58
2021/12/20 07:23:51;;;;;;;7.28;4.25;;;;;;;4.12;61.85;97119.50;10364600;28;20684;-58
2021/12/20 07:28:50;;;;;;;6.78;4.47;;;;;;;4.13;61.89;97109.25;10370210;28;20037;-58
2021/12/20 07:33:49;;;;;;;6.15;4.15;;;;;;;4.33;60.99;97124.94;10366221;28;20116;-58
2021/12/20 07:38:49;;;;;;;7.65;4.90;;;;;;;4.47;61.67;97135.38;10372488;28;20072;-58
2021/12/20 07:43:50;;;;;;;9.02;5.10;;;;;;;4.46;61.24;97106.28;10366156;28;20065;-58
2021/12/20 07:48:49;;;;;;;8.57;4.80;;;;;;;4.51;61.04;97119.19;10370932;28;20135;-58
2021/12/20 07:53:48;;;;;;;8.80;5.05;;;;;;;4.45;60.72;97111.38;10345643;28;20052;-58
2021/12/20 07:58:48;;;;;;;7.30;4.47;;;;;;;4.46;60.71;97141.38;10352691;28;20064;-58
2021/12/20 08:03:47;;;;;;;11.57;6.07;;;;;;;4.48;60.95;97155.13;10371124;28;20068;-58
2021/12/20 08:08:46;;;;;;;8.30;4.97;;;;;;;4.38;60.78;97163.53;10348371;28;20138;-58
2021/12/20 08:13:45;;;;;;;9.73;6.35;;;;;;;4.32;61.27;97168.59;10357083;28;20064;-58
2021/12/20 08:18:44;;;;;;;8.80;5.47;;;;;;;4.14;61.08;97172.59;10346033;28;20120;-58
2021/12/20 08:23:44;;;;;;;7.97;5.10;;;;;;;4.07;61.69;97174.22;10356425;28;20084;-58
2021/12/20 08:28:44;;;;;;;10.98;6.40;;;;;;;4.10;61.66;97170.81;10353309;28;20073;-58
2021/12/20 08:33:43;;;;;;;11.30;6.32;;;;;;;4.13;61.60;97173.47;10348261;28;20069;-57
2021/12/20 08:38:42;;;;;;;7.88;5.90;;;;;;;4.23;60.81;97170.16;10363300;28;20044;-58
2021/12/20 08:43:41;;;;;;;7.63;4.90;;;;;;;4.55;60.20;97171.44;10361801;28;20079;-57
2021/12/20 08:48:40;;;;;;;7.38;4.30;;;;;;;4.75;59.16;97170.00;10370245;28;20065;-58
2021/12/20 08:53:40;;;;;;;8.55;5.45;;;;;;;5.04;57.96;97169.50;10362651;28;20073;-57
2021/12/20 08:58:39;;;;;;;8.30;5.10;;;;;;;5.28;56.87;97171.50;10377703;28;20523;-58
2021/12/20 09:03:38;;;;;;;4.93;3.30;;;;;;;5.53;55.47;97167.44;10375636;28;20041;-58
2021/12/20 09:08:39;;;;;;;5.97;4.43;;;;;;;5.76;55.23;97175.38;10375688;28;20072;-58
2021/12/20 09:13:38;;;;;;;8.57;4.80;;;;;;;5.94;55.82;97174.69;10377346;28;20451;-58
2021/12/20 09:18:37;;;;;;;5.97;4.55;;;;;;;5.93;56.03;97158.38;10349857;28;20409;-58
2021/12/20 09:23:38;;;;;;;8.38;5.97;;;;;;;6.09;54.31;97184.22;10369909;28;20469;-58
2021/12/20 09:28:37;;;;;;;6.88;5.10;;;;;;;6.12;54.02;97179.97;10370198;28;20071;-58
2021/12/20 09:33:36;;;;;;;7.55;5.28;;;;;;;6.08;51.49;97172.22;10352635;28;20068;-58
2021/12/20 09:38:35;;;;;;;6.47;4.30;;;;;;;6.24;52.46;97184.34;10376351;28;20073;-58
2021/12/20 09:43:37;;;;;;;6.07;4.65;;;;;;;6.42;53.64;97186.16;10359768;28;20507;-58
2021/12/20 09:48:36;;;;;;;8.68;5.55;;;;;;;6.40;53.46;97162.13;10376276;28;20115;-58
2021/12/20 09:53:35;;;;;;;9.75;5.28;;;;;;;6.69;53.10;97182.03;10374263;28;20116;-58
2021/12/20 09:58:38;;;;;;;8.82;5.70;;;;;;;6.74;53.26;97181.19;10376933;28;20063;-58
2021/12/20 10:03:37;;;;;;;7.13;4.80;;;;;;;6.81;52.95;97176.94;10375709;28;20069;-58
2021/12/20 10:08:47;;;;;;;15.43;6.93;;;;;;;6.86;52.07;97184.69;10382557;28;20064;-58
2021/12/20 10:13:47;;;;;;;10.07;6.55;;;;;;;6.83;52.27;97188.97;10370081;28;20812;-58
2021/12/20 10:18:47;;;;;;;11.25;6.72;;;;;;;6.91;52.02;97173.53;10355848;28;20075;-58
2021/12/20 10:23:48;;;;;;;10.00;5.53;;;;;;;6.70;52.51;97169.16;10393068;28;20057;-58
2021/12/20 10:28:52;;;;;;;7.63;4.47;;;;;;;6.56;52.33;97178.50;10353884;28;20095;-58
2021/12/20 10:33:55;;;;;;;12.07;7.07;;;;;;;6.46;52.91;97187.91;10371852;28;20091;-58
2021/12/20 10:38:56;;;;;;;10.68;7.38;;;;;;;6.54;52.30;97180.25;10367604;28;20068;-58
2021/12/20 10:44:00;;;;;;;17.38;10.18;;;;;;;6.55;52.71;97184.53;10360811;28;20067;-58
2021/12/20 10:49:05;;;;;;;13.10;5.90;;;;;;;6.60;53.47;97190.56;10350468;28;20072;-58
2021/12/20 10:54:10;;;;;;;10.27;5.93;;;;;;;6.63;53.93;97188.00;10342646;28;20064;-58
2021/12/20 10:59:11;;;;;;;7.15;4.50;;;;;;;6.44;52.50;97188.75;10365315;28;20126;-58
2021/12/20 11:04:19;;;;;;;10.80;4.97;;;;;;;6.50;53.97;97188.81;10367008;28;20076;-58
2021/12/20 11:09:20;;;;;;;7.10;4.47;;;;;;;6.33;53.41;97184.41;10361750;28;20144;-58
2021/12/20 11:14:26;;;;;;;7.70;5.50;;;;;;;6.21;53.55;97192.06;10363116;28;20833;-58
2021/12/20 11:19:33;;;;;;;8.60;5.90;;;;;;;6.09;54.06;97197.09;10359025;28;20157;-58
2021/12/20 11:24:37;;;;;;;7.78;4.72;;;;;;;5.85;54.82;97197.78;10375760;28;20077;-58
2021/12/20 11:29:37;;;;;;;6.20;4.25;;;;;;;5.91;55.26;97196.13;10343236;28;20061;-58
2021/12/20 11:34:42;;;;;;;6.43;3.67;;;;;;;5.92;56.13;97195.25;10365487;28;20527;-58
2021/12/20 11:39:41;;;;;;;5.28;3.10;;;;;;;5.85;56.29;97208.06;10345946;28;20069;-58
2021/12/20 11:44:45;;;;;;;5.50;3.97;;;;;;;5.68;56.13;97215.66;10366873;28;20064;-58
2021/12/20 11:49:53;;;;;;;9.43;6.57;;;;;;;5.57;57.45;97219.81;10354431;28;20538;-58
2021/12/20 11:54:53;;;;;;;8.00;5.18;;;;;;;5.48;57.44;97226.59;10344162;28;20509;-58
2021/12/20 11:59:55;;;;;;;7.13;5.10;;;;;;;5.42;56.97;97234.25;10349069;28;20088;-58
2021/12/20 12:05:27;;;;;;;4.10;3.45;;;;;;;5.00;57.07;97243.19;10349664;28;20080;-58
2021/12/20 12:10:29;;;;;;;10.35;6.72;;;;;;;5.09;58.46;97258.75;10368520;28;20079;-58
2021/12/20 12:15:44;;;;;;;9.70;5.20;;;;;;;5.03;59.95;97263.81;10371709;28;20057;-58
2021/12/20 12:20:50;;;;;;;9.90;6.07;;;;;;;5.01;61.33;97270.63;10366941;28;20087;-58
2021/12/20 12:25:54;;;;;;;10.05;6.97;;;;;;;5.00;62.71;97265.50;10349378;28;20473;-58
2021/12/20 12:30:58;;;;;;;12.32;7.68;;;;;;;5.11;62.31;97266.47;10368514;28;20550;-58
2021/12/20 12:36:00;;;;;;;11.93;6.60;;;;;;;5.16;63.06;97264.84;10376708;28;20071;-58
2021/12/20 12:41:05;;;;;;;11.65;8.73;;;;;;;5.08;63.37;97277.56;10337814;28;20065;-58
2021/12/20 12:46:04;;;;;;;13.80;9.38;;;;;;;5.16;63.17;97272.56;10335005;28;20497;-58
2021/12/20 12:51:05;;;;;;;11.60;8.13;;;;;;;5.26;62.60;97288.97;10334586;28;20080;-58
2021/12/20 12:56:25;;;;;;;13.23;9.25;;;;;;;5.48;62.85;97308.06;10335112;28;20076;-58
2021/12/20 13:01:24;;;;;;;18.33;12.95;;;;;;;5.47;61.41;97316.66;10359561;28;20084;-58
2021/12/20 13:06:25;;;;;;;14.23;10.10;;;;;;;5.69;61.86;97307.47;10349908;28;20166;-58
2021/12/20 13:11:25;;;;;;;9.68;6.68;;;;;;;5.88;60.10;97314.56;10354569;28;20468;-58
2021/12/20 13:16:26;;;;;;;7.15;4.15;;;;;;;5.71;55.39;97316.94;10360188;28;20065;-58
2021/12/20 13:21:37;;;;;;;15.52;8.75;;;;;;;5.13;55.68;97319.69;10361300;28;20511;-58
2021/12/20 13:26:36;;;;;;;9.93;6.45;;;;;;;4.52;55.87;97295.59;10372170;28;20068;-58
2021/12/20 13:31:37;;;;;;;6.05;4.20;;;;;;;4.55;56.86;97325.63;10341222;28;20090;-58
2021/12/20 13:36:36;;;;;;;6.47;3.08;;;;;;;3.88;53.15;97366.41;10374201;28;20142;-58
2021/12/20 13:41:38;;;;;;;12.50;8.10;;;;;;;3.73;54.05;97369.53;10371509;28;20387;-58
2021/12/20 13:46:43;;;;;;;15.02;9.02;;;;;;;3.64;53.95;97372.81;10364043;28;20072;-58
2021/12/20 13:51:48;;;;;;;7.85;5.20;;;;;;;3.47;52.83;97394.66;10356853;28;20065;-58
2021/12/20 13:57:11;;;;;;;13.40;8.05;;;;;;;3.21;50.77;97403.56;10350794;28;20069;-58
2021/12/20 14:02:13;;;;;;;14.13;8.05;;;;;;;3.04;50.81;97393.75;10356895;28;20116;-58
2021/12/20 14:07:28;;;;;;;6.82;3.95;;;;;;;2.84;50.98;97431.69;10362999;28;20069;-57
2021/12/20 14:12:36;;;;;;;12.27;6.90;;;;;;;2.92;51.36;97430.22;10366585;28;20444;-57
2021/12/20 14:18:03;;;;;;;11.20;5.57;;;;;;;2.70;51.78;97439.06;10368393;28;20103;-57
2021/12/20 14:23:03;;;;;;;19.15;8.65;;;;;;;2.65;52.12;97445.75;10365682;28;20061;-57
2021/12/20 14:28:06;;;;;;;11.02;5.90;;;;;;;2.33;52.35;97449.25;10374968;28;20065;-57
2021/12/20 14:33:32;;;;;;;56.20;18.90;;;;;;;2.25;52.07;97470.34;10353829;28;20080;-57
2021/12/20 14:38:35;;;;;;;10.02;5.25;;;;;;;2.15;51.71;97464.09;10374319;28;20061;-57
2021/12/20 14:43:34;;;;;;;16.15;7.70;;;;;;;2.22;51.29;97460.88;10373325;28;20079;-57
2021/12/20 14:48:41;;;;;;;10.98;6.72;;;;;;;2.16;51.67;97465.81;10358866;28;20037;-57
2021/12/20 14:53:40;;;;;;;12.90;7.22;;;;;;;1.97;51.45;97464.44;10333044;28;20069;-58
2021/12/20 14:58:40;;;;;;;12.30;7.97;;;;;;;1.85;51.04;97485.44;10332763;28;20033;-58
2021/12/20 15:03:42;;;;;;;;;;;;;;;1.66;50.50;97496.84;10349666;28;20460;-58
2021/12/20 15:08:41;;;;;;;14.52;7.43;;;;;;;1.54;50.10;97499.03;10372411;28;19940;-58
2021/12/20 15:13:40;;;;;;;12.32;6.43;;;;;;;1.53;49.37;97504.97;10372942;28;20029;-58
2021/12/20 15:18:39;;;;;;;20.35;10.48;;;;;;;1.49;48.57;97508.25;10357339;28;20530;-58
2021/12/20 15:23:38;;;;;;;15.52;8.88;;;;;;;1.53;48.29;97530.56;10364055;28;20072;-58
2021/12/20 15:28:37;;;;;;;37.00;17.65;;;;;;;1.41;49.53;97538.72;10362612;28;20048;-58
2021/12/20 15:33:36;;;;;;;12.95;8.60;;;;;;;1.29;49.55;97546.88;10372481;28;20025;-58
2021/12/20 15:38:35;;;;;;;26.05;15.07;;;;;;;1.29;49.96;97567.31;10372351;28;20816;-58
2021/12/20 15:43:35;;;;;;;16.88;9.20;;;;;;;1.14;48.90;97576.16;10370811;28;20071;-58
2021/12/20 15:48:35;;;;;;;13.30;7.32;;;;;;;1.16;48.72;97585.63;10369598;28;20211;-60
2021/12/20 15:53:35;;;;;;;18.10;9.55;;;;;;;1.09;49.00;97587.09;10350910;28;20076;-58
2021/12/20 15:58:35;;;;;;;16.88;12.13;;;;;;;1.15;49.25;97595.78;10339650;28;20068;-58
2021/12/20 16:03:34;;;;;;;8.77;5.50;;;;;;;0.87;48.30;97585.50;10369976;28;20104;-58
2021/12/20 16:08:33;;;;;;;12.35;9.00;;;;;;;1.03;49.14;97594.53;10389019;28;20083;-58
2021/12/20 16:13:32;;;;;;;15.27;9.55;;;;;;;0.97;48.48;97604.56;10388536;28;20076;-58
2021/12/20 16:18:31;;;;;;;32.65;18.75;;;;;;;1.14;49.09;97610.25;10375508;28;20045;-58
2021/12/20 16:23:30;;;;;;;27.35;14.93;;;;;;;1.06;48.98;97632.09;10375609;28;20036;-58
2021/12/20 16:28:29;;;;;;;31.25;16.73;;;;;;;1.02;49.23;97636.25;10374085;28;20788;-58
2021/12/20 16:33:33;;;;;;;15.43;10.10;;;;;;;0.99;49.80;97625.03;10372969;28;20197;-58
2021/12/20 16:38:32;;;;;;;12.48;6.78;;;;;;;0.96;49.91;97641.13;10352400;28;20496;-58
2021/12/20 16:43:36;;;;;;;;;;;;;;;1.04;50.27;97647.41;10374872;28;20073;-58
2021/12/20 16:48:36;;;;;;;12.35;7.45;;;;;;;0.99;50.85;97650.59;10345965;28;19960;-58
2021/12/20 16:53:35;;;;;;;15.02;8.48;;;;;;;0.84;51.41;97661.16;10359192;28;20072;-58
2021/12/20 16:58:34;;;;;;;13.07;8.73;;;;;;;0.78;52.04;97650.72;10306742;28;1207151;-58
2021/12/20 17:04:10;;;;;;;25.00;16.02;;;;;;;0.67;52.48;97673.31;10368108;28;20036;-58
2021/12/20 17:09:05;;;;;;;43.03;27.00;;;;;;;0.46;53.30;97663.19;10368103;28;20141;-58
2021/12/20 17:14:04;;;;;;;60.20;34.15;;;;;;;0.43;54.13;97676.72;10366096;28;20145;-58
2021/12/20 17:19:04;;;;;;;62.95;37.78;;;;;;;0.33;54.87;97692.47;10364901;28;20044;-58
2021/12/20 17:24:06;;;;;;;67.28;38.05;;;;;;;-0.18;55.55;97628.47;10368759;28;20957;-57
2021/12/20 17:29:09;;;;;;;58.65;36.25;;;;;;;0.17;56.08;97690.16;10362402;28;20128;-57
2021/12/20 17:34:08;;;;;;;53.25;32.78;;;;;;;0.11;56.47;97684.84;10356903;28;20131;-57
2021/12/20 17:39:07;;;;;;;44.40;25.85;;;;;;;0.19;57.02;97691.09;10355985;28;20060;-58
2021/12/20 17:44:06;;;;;;;38.50;26.20;;;;;;;0.19;56.66;97689.41;10354412;28;20222;-58
2021/12/20 17:49:05;;;;;;;37.95;23.25;;;;;;;0.19;56.67;97693.63;10357541;28;20029;-58
2021/12/20 17:54:04;;;;;;;39.60;27.20;;;;;;;0.17;56.37;97690.16;10356831;28;21509;-57
2021/12/20 17:59:03;;;;;;;36.45;22.13;;;;;;;0.21;56.75;97692.88;10355835;28;20131;-57
2021/12/20 18:04:03;;;;;;;49.90;29.70;;;;;;;0.18;56.62;97697.88;10357388;28;20126;-58
2021/12/20 18:09:04;;;;;;;;;;;;;;;0.16;57.08;97703.75;10358801;28;20470;-58
2021/12/20 18:14:03;;;;;;;66.25;38.08;;;;;;;0.10;57.02;97717.13;10355204;28;20016;-58
2021/12/20 18:19:03;;;;;;;50.40;32.42;;;;;;;0.11;57.35;97715.44;10354097;28;20045;-57
2021/12/20 18:24:03;;;;;;;46.90;26.25;;;;;;;0.19;57.09;97716.59;10356655;28;20112;-57
2021/12/20 18:29:02;;;;;;;40.17;24.13;;;;;;;0.25;57.58;97727.06;10356830;28;20031;-57
2021/12/20 18:34:01;;;;;;;;;;;;;;;0.28;57.44;97724.63;10355499;28;20140;-57
2021/12/20 18:39:00;;;;;;;21.20;12.30;;;;;;;0.24;57.02;97730.41;10355052;28;20050;-58
2021/12/20 18:44:05;;;;;;;;;;;;;;;0.39;57.02;97733.56;10356434;28;20635;-58
2021/12/20 18:49:07;;;;;;;33.47;18.65;;;;;;;0.53;57.38;97729.00;10355959;28;20035;-57
2021/12/20 18:54:06;;;;;;;42.08;25.60;;;;;;;0.56;56.98;97725.69;10351651;28;20107;-57
2021/12/20 18:59:05;;;;;;;39.17;23.25;;;;;;;0.66;57.26;97732.84;10352663;28;20061;-58
2021/12/20 19:04:05;;;;;;;40.67;25.70;;;;;;;0.69;57.70;97735.56;10358057;28;20143;-58
2021/12/20 19:09:06;;;;;;;40.20;25.40;;;;;;;0.84;57.12;97750.56;10355809;28;20179;-57
2021/12/20 19:14:10;;;;;;;41.22;26.15;;;;;;;0.88;57.56;97745.63;10356890;28;20135;-57
2021/12/20 19:19:11;;;;;;;42.33;27.00;;;;;;;0.82;57.78;97742.84;10357551;28;20140;-57
2021/12/20 19:24:11;;;;;;;24.25;13.75;;;;;;;0.68;56.82;97731.25;10356897;28;20108;-58
2021/12/20 19:29:15;;;;;;;22.77;14.40;;;;;;;0.74;56.50;97751.03;10354781;28;20182;-57
2021/12/20 19:34:19;;;;;;;25.92;15.95;;;;;;;0.81;56.61;97753.00;10356528;28;21306;-57
2021/12/20 19:39:19;;;;;;;34.58;19.35;;;;;;;0.86;57.29;97762.56;10353175;28;20362;-58
2021/12/20 19:44:19;;;;;;;32.20;21.25;;;;;;;0.86;57.57;97756.59;10355679;28;20144;-58
2021/12/20 19:49:19;;;;;;;57.47;33.90;;;;;;;0.60;58.28;97753.06;10357084;28;20127;-57
2021/12/20 19:54:18;;;;;;;56.17;31.98;;;;;;;0.63;58.70;97777.03;10351697;28;20145;-57
2021/12/20 19:59:17;;;;;;;;;;;;;;;0.65;58.53;97772.84;10353767;28;20603;-58
2021/12/20 20:04:20;;;;;;;43.80;25.75;;;;;;;0.65;59.35;97772.84;10354404;28;21077;-57
2021/12/20 20:09:21;;;;;;;34.72;21.65;;;;;;;0.66;59.15;97779.72;10352937;28;20119;-57
2021/12/20 20:14:21;;;;;;;46.17;27.48;;;;;;;0.65;59.37;97792.41;10352379;28;20035;-57
2021/12/20 20:19:20;;;;;;;42.95;27.88;;;;;;;0.48;59.58;97774.78;10352581;28;20043;-57
2021/12/20 20:24:19;;;;;;;28.70;14.88;;;;;;;0.46;59.64;97786.59;10353039;28;20800;-58
2021/12/20 20:29:20;;;;;;;23.55;14.98;;;;;;;0.64;59.74;97785.59;10355283;28;20131;-58
2021/12/20 20:34:19;;;;;;;16.40;9.65;;;;;;;0.66;59.57;97778.81;10354871;28;20107;-57
2021/12/20 20:39:18;;;;;;;15.63;10.75;;;;;;;0.73;59.67;97769.72;10355701;28;20496;-57
2021/12/20 20:44:17;;;;;;;20.23;12.65;;;;;;;0.88;59.07;97796.72;10358971;28;20127;-57
2021/12/20 20:49:16;;;;;;;26.90;17.38;;;;;;;0.92;59.05;97795.16;10359587;28;20132;-58
2021/12/20 20:54:16;;;;;;;40.63;24.23;;;;;;;0.86;59.47;97798.34;10360700;28;20142;-58
2021/12/20 20:59:15;;;;;;;46.80;27.65;;;;;;;0.86;59.64;97808.56;10358796;28;20187;-58
2021/12/20 21:04:19;;;;;;;46.90;30.42;;;;;;;0.77;60.40;97792.88;10359775;28;20148;-57
2021/12/20 21:09:18;;;;;;;61.85;41.00;;;;;;;0.75;60.84;97796.19;10361503;28;20846;-58
2021/12/20 21:14:19;;;;;;;33.22;21.75;;;;;;;0.65;58.46;97798.41;10357956;28;20496;-58
2021/12/20 21:19:18;;;;;;;22.65;13.35;;;;;;;0.63;57.56;97788.94;10325199;28;20165;-58
2021/12/20 21:24:17;;;;;;;22.58;14.93;;;;;;;0.72;57.52;97794.41;10276294;28;20760;-57
2021/12/20 21:29:17;;;;;;;25.25;15.52;;;;;;;0.80;56.59;97795.56;10276065;28;20152;-57
2021/12/20 21:34:23;;;;;;;53.20;29.80;;;;;;;0.80;57.39;97794.69;10275017;28;20133;-58
2021/12/20 21:39:23;;;;;;;62.88;36.17;;;;;;;0.85;57.38;97798.28;10279133;28;20141;-57
2021/12/20 21:44:26;;;;;;;92.50;56.40;;;;;;;0.84;58.65;97799.97;10278090;28;20136;-57
2021/12/20 21:49:25;;;;;;;89.75;53.33;;;;;;;0.75;59.44;97789.41;10278970;28;20033;-58
2021/12/20 21:54:24;;;;;;;100.43;60.15;;;;;;;0.67;60.98;97803.56;10276001;28;20080;-57
2021/12/20 21:59:24;;;;;;;77.25;48.72;;;;;;;0.64;60.44;97816.22;10278760;28;20136;-57
2021/12/20 22:04:24;;;;;;;79.22;47.60;;;;;;;0.69;59.93;97809.63;10291471;28;20050;-57
2021/12/20 22:09:24;;;;;;;65.55;39.33;;;;;;;0.84;60.10;97817.84;10277256;28;20041;-57
2021/12/20 22:14:24;;;;;;;21.30;12.48;;;;;;;0.87;59.77;97820.53;10276155;28;20124;-57
2021/12/20 22:19:24;;;;;;;16.90;9.75;;;;;;;0.90;58.71;97815.53;10256031;28;20125;-57
2021/12/20 22:24:23;;;;;;;17.10;8.10;;;;;;;0.82;57.43;97811.81;10278447;28;20030;-57
2021/12/20 22:29:22;;;;;;;15.27;8.05;;;;;;;0.86;58.00;97812.81;10277951;28;20029;-57
2021/12/20 22:34:21;;;;;;;9.32;5.75;;;;;;;0.92;58.08;97814.72;10278049;28;20124;-57
2021/12/20 22:39:20;;;;;;;8.63;4.60;;;;;;;0.92;58.16;97812.16;10277679;28;20120;-57
2021/12/20 22:44:19;;;;;;;8.38;4.95;;;;;;;0.92;57.77;97822.38;10277440;28;20038;-57
2021/12/20 22:49:19;;;;;;;8.90;5.00;;;;;;;0.91;57.35;97811.28;10276768;28;20101;-57
2021/12/20 22:54:17;;;;;;;9.20;5.43;;;;;;;1.00;57.11;97813.31;10277313;28;20121;-57
2021/12/20 22:59:17;;;;;;;11.02;6.47;;;;;;;1.06;57.14;97805.88;10275250;28;20176;-57
2021/12/20 23:04:16;;;;;;;10.60;5.95;;;;;;;1.09;56.81;97808.56;10273497;28;20116;-57
2021/12/20 23:09:16;;;;;;;11.65;6.38;;;;;;;1.04;56.31;97803.28;10274426;28;20042;-57
2021/12/20 23:19:15;;;;;;;15.63;6.97;;;;;;;1.20;55.62;97809.84;10273803;28;20156;-57
2021/12/20 23:24:15;;;;;;;11.80;6.70;;;;;;;1.20;55.48;97803.81;10273684;28;20129;-58
2021/12/20 23:29:14;;;;;;;12.27;6.25;;;;;;;1.28;55.49;97810.09;10273331;28;20454;-57
2021/12/20 23:34:13;;;;;;;11.60;6.95;;;;;;;1.28;55.10;97802.44;10273230;28;20639;-58